Terminal Aerodrome Forecast
Issued by NWS Billings, MT

Home | Current Version | Previous Version | Text Only | Print | Product List | Glossary On
Versions: 1 2 3 4 5 6 7 8 9 10 11 12 13 14 15 16 17 18 19 20 21 22 23 24 25 26 27 28 29
000
FTUS45 KBYZ 261131
TAFMLS
TAF
KMLS 261131Z 2612/2712 VRB05KT 3SM BR SCT002 BKN150
      TEMPO 2612/2615 1/4SM FZFG VV001
     FM261600 03010KT P6SM SCT020 BKN060 OVC100
     FM261900 03010KT P6SM VCSH FEW020 OVC040
      TEMPO 2619/2621 3SM -RA BR SCT010 OVC025
     FM262100 02012KT 3SM -RA BR FEW006 OVC012
     FM270300 02008KT 1SM -RA BR OVC003
     FM270700 32008KT 4SM -RA BR SCT003 OVC010=

USA.gov is the U.S. government's official web portal to all federal, state and local government web resources and services.